sensor_id;sensor_type;location;lat;lon;timestamp;pressure;altitude;pressure_sealevel;temperature;humidity
18697;BME280;22617;43.690;27.956;2024-03-25T00:01:08;97305.44;;;8.15;100.00
18697;BME280;22617;43.690;27.956;2024-03-25T00:06:10;97296.00;;;8.11;100.00
18697;BME280;22617;43.690;27.956;2024-03-25T00:11:13;97301.25;;;8.09;100.00
18697;BME280;22617;43.690;27.956;2024-03-25T00:16:15;97290.22;;;8.00;100.00
18697;BME280;22617;43.690;27.956;2024-03-25T00:21:17;97279.22;;;8.27;100.00
18697;BME280;22617;43.690;27.956;2024-03-25T00:26:19;97272.59;;;8.14;100.00
18697;BME280;22617;43.690;27.956;2024-03-25T00:31:21;97273.56;;;8.10;100.00
18697;BME280;22617;43.690;27.956;2024-03-25T00:36:23;97260.72;;;8.04;100.00
18697;BME280;22617;43.690;27.956;2024-03-25T00:41:24;97250.69;;;8.25;100.00
18697;BME280;22617;43.690;27.956;2024-03-25T00:46:26;97244.31;;;8.03;100.00
18697;BME280;22617;43.690;27.956;2024-03-25T00:51:28;97243.38;;;8.06;100.00
18697;BME280;22617;43.690;27.956;2024-03-25T00:56:31;97242.00;;;8.28;100.00
18697;BME280;22617;43.690;27.956;2024-03-25T01:01:33;97253.75;;;8.06;100.00
18697;BME280;22617;43.690;27.956;2024-03-25T01:06:36;97235.34;;;8.16;100.00
18697;BME280;22617;43.690;27.956;2024-03-25T01:11:38;97230.97;;;8.20;100.00
18697;BME280;22617;43.690;27.956;2024-03-25T01:16:40;97216.59;;;8.05;100.00
18697;BME280;22617;43.690;27.956;2024-03-25T01:21:43;97215.53;;;8.14;100.00
18697;BME280;22617;43.690;27.956;2024-03-25T01:26:45;97205.09;;;8.15;100.00
18697;BME280;22617;43.690;27.956;2024-03-25T01:31:47;97215.19;;;8.27;100.00
18697;BME280;22617;43.690;27.956;2024-03-25T01:36:49;97210.97;;;8.23;100.00
18697;BME280;22617;43.690;27.956;2024-03-25T01:41:52;97210.66;;;8.37;100.00
18697;BME280;22617;43.690;27.956;2024-03-25T01:46:54;97220.28;;;8.34;100.00
18697;BME280;22617;43.690;27.956;2024-03-25T01:51:57;97217.59;;;8.37;100.00
18697;BME280;22617;43.690;27.956;2024-03-25T01:57:00;97208.91;;;8.39;100.00
18697;BME280;22617;43.690;27.956;2024-03-25T02:02:03;97208.31;;;8.25;100.00
18697;BME280;22617;43.690;27.956;2024-03-25T02:07:06;97207.31;;;8.34;100.00
18697;BME280;22617;43.690;27.956;2024-03-25T02:12:09;97196.06;;;8.33;100.00
18697;BME280;22617;43.690;27.956;2024-03-25T02:17:11;97197.84;;;8.31;100.00
18697;BME280;22617;43.690;27.956;2024-03-25T02:22:13;97202.19;;;8.29;100.00
18697;BME280;22617;43.690;27.956;2024-03-25T02:27:16;97202.88;;;8.37;100.00
18697;BME280;22617;43.690;27.956;2024-03-25T02:32:18;97186.59;;;8.30;100.00
18697;BME280;22617;43.690;27.956;2024-03-25T02:37:20;97180.84;;;8.18;100.00
18697;BME280;22617;43.690;27.956;2024-03-25T02:42:23;97184.91;;;8.29;100.00
18697;BME280;22617;43.690;27.956;2024-03-25T02:47:26;97185.69;;;8.33;100.00
18697;BME280;22617;43.690;27.956;2024-03-25T02:52:28;97203.97;;;8.27;100.00
18697;BME280;22617;43.690;27.956;2024-03-25T02:57:30;97217.63;;;7.97;100.00
18697;BME280;22617;43.690;27.956;2024-03-25T03:02:32;97208.97;;;7.98;100.00
18697;BME280;22617;43.690;27.956;2024-03-25T03:07:34;97202.59;;;8.11;100.00
18697;BME280;22617;43.690;27.956;2024-03-25T03:12:36;97208.06;;;8.00;100.00
18697;BME280;22617;43.690;27.956;2024-03-25T03:17:38;97221.72;;;7.68;100.00
18697;BME280;22617;43.690;27.956;2024-03-25T03:22:40;97210.78;;;7.94;100.00
18697;BME280;22617;43.690;27.956;2024-03-25T03:27:42;97227.63;;;8.15;100.00
18697;BME280;22617;43.690;27.956;2024-03-25T03:32:44;97218.97;;;8.14;100.00
18697;BME280;22617;43.690;27.956;2024-03-25T03:37:46;97212.28;;;8.43;100.00
18697;BME280;22617;43.690;27.956;2024-03-25T03:42:48;97206.22;;;8.42;100.00
18697;BME280;22617;43.690;27.956;2024-03-25T03:47:50;97209.25;;;8.59;100.00
18697;BME280;22617;43.690;27.956;2024-03-25T03:52:52;97248.03;;;8.30;100.00
18697;BME280;22617;43.690;27.956;2024-03-25T03:57:54;97234.03;;;8.37;100.00
18697;BME280;22617;43.690;27.956;2024-03-25T04:02:56;97245.03;;;8.48;100.00
18697;BME280;22617;43.690;27.956;2024-03-25T04:07:59;97250.25;;;8.45;100.00
18697;BME280;22617;43.690;27.956;2024-03-25T04:13:00;97275.88;;;8.22;100.00
18697;BME280;22617;43.690;27.956;2024-03-25T04:18:03;97269.13;;;8.15;100.00
18697;BME280;22617;43.690;27.956;2024-03-25T04:23:06;97259.13;;;7.97;100.00
18697;BME280;22617;43.690;27.956;2024-03-25T04:28:08;97237.06;;;7.77;100.00
18697;BME280;22617;43.690;27.956;2024-03-25T04:33:10;97235.81;;;7.57;100.00
18697;BME280;22617;43.690;27.956;2024-03-25T04:38:12;97241.84;;;7.57;100.00
18697;BME280;22617;43.690;27.956;2024-03-25T04:43:13;97245.44;;;7.50;100.00
18697;BME280;22617;43.690;27.956;2024-03-25T04:48:14;97230.06;;;7.42;100.00
18697;BME280;22617;43.690;27.956;2024-03-25T04:53:15;97237.75;;;7.45;100.00
18697;BME280;22617;43.690;27.956;2024-03-25T04:58:16;97234.69;;;7.27;100.00
18697;BME280;22617;43.690;27.956;2024-03-25T05:03:17;97236.91;;;7.43;100.00
18697;BME280;22617;43.690;27.956;2024-03-25T05:08:18;97237.34;;;7.65;100.00
18697;BME280;22617;43.690;27.956;2024-03-25T05:13:19;97253.13;;;7.53;100.00
18697;BME280;22617;43.690;27.956;2024-03-25T05:18:20;97273.47;;;7.30;100.00
18697;BME280;22617;43.690;27.956;2024-03-25T05:23:21;97276.75;;;6.93;100.00
18697;BME280;22617;43.690;27.956;2024-03-25T05:28:22;97277.31;;;6.60;100.00
18697;BME280;22617;43.690;27.956;2024-03-25T05:33:23;97262.34;;;6.24;100.00
18697;BME280;22617;43.690;27.956;2024-03-25T05:38:24;97267.63;;;6.16;100.00
18697;BME280;22617;43.690;27.956;2024-03-25T05:43:25;97256.44;;;6.14;100.00
18697;BME280;22617;43.690;27.956;2024-03-25T05:48:26;97253.88;;;6.14;100.00
18697;BME280;22617;43.690;27.956;2024-03-25T05:53:27;97255.88;;;5.95;100.00
18697;BME280;22617;43.690;27.956;2024-03-25T05:58:29;97273.00;;;6.02;100.00
18697;BME280;22617;43.690;27.956;2024-03-25T06:03:29;97270.72;;;5.80;100.00
18697;BME280;22617;43.690;27.956;2024-03-25T06:08:30;97267.41;;;5.67;100.00
18697;BME280;22617;43.690;27.956;2024-03-25T06:13:32;97269.03;;;5.76;100.00
18697;BME280;22617;43.690;27.956;2024-03-25T06:18:33;97275.03;;;5.76;100.00
18697;BME280;22617;43.690;27.956;2024-03-25T06:23:34;97276.16;;;5.57;100.00
18697;BME280;22617;43.690;27.956;2024-03-25T06:28:35;97266.59;;;5.65;100.00
18697;BME280;22617;43.690;27.956;2024-03-25T06:33:36;97238.44;;;5.45;100.00
18697;BME280;22617;43.690;27.956;2024-03-25T06:38:56;97262.59;;;5.41;100.00
18697;BME280;22617;43.690;27.956;2024-03-25T06:43:57;97274.59;;;5.42;100.00
18697;BME280;22617;43.690;27.956;2024-03-25T06:48:58;97265.25;;;5.34;100.00
18697;BME280;22617;43.690;27.956;2024-03-25T06:53:59;97255.88;;;5.25;100.00
18697;BME280;22617;43.690;27.956;2024-03-25T06:59:00;97253.22;;;5.31;100.00
18697;BME280;22617;43.690;27.956;2024-03-25T07:04:01;97281.44;;;5.49;100.00
18697;BME280;22617;43.690;27.956;2024-03-25T07:09:02;97291.00;;;5.40;100.00
18697;BME280;22617;43.690;27.956;2024-03-25T07:14:06;97285.69;;;5.52;100.00
18697;BME280;22617;43.690;27.956;2024-03-25T07:19:07;97290.94;;;5.46;100.00
18697;BME280;22617;43.690;27.956;2024-03-25T07:24:08;97300.31;;;5.56;100.00
18697;BME280;22617;43.690;27.956;2024-03-25T07:29:09;97315.72;;;5.63;100.00
18697;BME280;22617;43.690;27.956;2024-03-25T07:34:10;97315.59;;;5.72;100.00
18697;BME280;22617;43.690;27.956;2024-03-25T07:39:12;97321.94;;;5.46;100.00
18697;BME280;22617;43.690;27.956;2024-03-25T07:44:13;97330.34;;;5.63;100.00
18697;BME280;22617;43.690;27.956;2024-03-25T07:49:14;97342.47;;;5.59;100.00
18697;BME280;22617;43.690;27.956;2024-03-25T07:54:15;97353.84;;;5.42;100.00
18697;BME280;22617;43.690;27.956;2024-03-25T07:59:16;97354.78;;;5.33;100.00
18697;BME280;22617;43.690;27.956;2024-03-25T08:04:16;97367.81;;;5.22;100.00
18697;BME280;22617;43.690;27.956;2024-03-25T08:09:17;97359.31;;;5.11;100.00
18697;BME280;22617;43.690;27.956;2024-03-25T08:14:18;97364.56;;;5.01;100.00
18697;BME280;22617;43.690;27.956;2024-03-25T08:19:19;97368.94;;;4.91;100.00
18697;BME280;22617;43.690;27.956;2024-03-25T08:24:20;97358.44;;;5.09;100.00
18697;BME280;22617;43.690;27.956;2024-03-25T08:29:21;97378.28;;;5.06;100.00
18697;BME280;22617;43.690;27.956;2024-03-25T08:34:22;97380.16;;;4.89;100.00
18697;BME280;22617;43.690;27.956;2024-03-25T08:39:23;97388.66;;;5.03;100.00
18697;BME280;22617;43.690;27.956;2024-03-25T08:44:24;97377.47;;;4.99;100.00
18697;BME280;22617;43.690;27.956;2024-03-25T08:49:25;97386.06;;;5.01;100.00
18697;BME280;22617;43.690;27.956;2024-03-25T08:54:26;97387.84;;;4.95;100.00
18697;BME280;22617;43.690;27.956;2024-03-25T08:59:27;97398.00;;;5.16;100.00
18697;BME280;22617;43.690;27.956;2024-03-25T09:04:28;97386.00;;;5.09;100.00
18697;BME280;22617;43.690;27.956;2024-03-25T09:09:29;97391.16;;;5.10;100.00
18697;BME280;22617;43.690;27.956;2024-03-25T09:14:48;97391.94;;;5.20;100.00
18697;BME280;22617;43.690;27.956;2024-03-25T09:19:49;97382.22;;;5.43;100.00
18697;BME280;22617;43.690;27.956;2024-03-25T09:24:50;97397.91;;;5.23;100.00
18697;BME280;22617;43.690;27.956;2024-03-25T09:29:52;97413.31;;;5.33;100.00
18697;BME280;22617;43.690;27.956;2024-03-25T09:34:52;97403.66;;;5.54;100.00
18697;BME280;22617;43.690;27.956;2024-03-25T09:39:53;97381.94;;;5.72;100.00
18697;BME280;22617;43.690;27.956;2024-03-25T09:44:55;97410.25;;;5.84;100.00
18697;BME280;22617;43.690;27.956;2024-03-25T09:49:57;97424.00;;;5.89;100.00
18697;BME280;22617;43.690;27.956;2024-03-25T09:55:00;97430.91;;;5.87;100.00
18697;BME280;22617;43.690;27.956;2024-03-25T10:00:01;97419.88;;;5.67;100.00
18697;BME280;22617;43.690;27.956;2024-03-25T10:05:13;97414.53;;;5.88;100.00
18697;BME280;22617;43.690;27.956;2024-03-25T10:10:19;97415.22;;;6.04;100.00
18697;BME280;22617;43.690;27.956;2024-03-25T10:15:20;97425.56;;;6.01;100.00
18697;BME280;22617;43.690;27.956;2024-03-25T10:20:22;97448.00;;;6.00;100.00
18697;BME280;22617;43.690;27.956;2024-03-25T10:25:27;97468.81;;;5.90;100.00
18697;BME280;22617;43.690;27.956;2024-03-25T10:30:29;97461.06;;;5.90;100.00
18697;BME280;22617;43.690;27.956;2024-03-25T10:35:31;97467.00;;;5.99;100.00
18697;BME280;22617;43.690;27.956;2024-03-25T10:40:34;97459.66;;;6.35;100.00
18697;BME280;22617;43.690;27.956;2024-03-25T10:45:38;97451.03;;;6.36;100.00
18697;BME280;22617;43.690;27.956;2024-03-25T10:50:40;97445.97;;;6.28;100.00
18697;BME280;22617;43.690;27.956;2024-03-25T10:55:54;97445.91;;;6.31;100.00
18697;BME280;22617;43.690;27.956;2024-03-25T11:00:55;97457.94;;;6.35;100.00
18697;BME280;22617;43.690;27.956;2024-03-25T11:05:57;97472.25;;;6.62;100.00
18697;BME280;22617;43.690;27.956;2024-03-25T11:10:58;97474.06;;;6.54;100.00
18697;BME280;22617;43.690;27.956;2024-03-25T11:16:00;97475.00;;;6.48;100.00
18697;BME280;22617;43.690;27.956;2024-03-25T11:21:02;97463.00;;;7.06;100.00
18697;BME280;22617;43.690;27.956;2024-03-25T11:26:04;97477.34;;;6.68;100.00
18697;BME280;22617;43.690;27.956;2024-03-25T11:31:05;97475.47;;;6.81;100.00
18697;BME280;22617;43.690;27.956;2024-03-25T11:36:06;97485.03;;;6.73;100.00
18697;BME280;22617;43.690;27.956;2024-03-25T11:41:08;97480.47;;;6.91;100.00
18697;BME280;22617;43.690;27.956;2024-03-25T11:46:10;97480.97;;;7.15;100.00
18697;BME280;22617;43.690;27.956;2024-03-25T11:51:13;97488.66;;;7.24;100.00
18697;BME280;22617;43.690;27.956;2024-03-25T11:56:17;97495.13;;;6.92;100.00
18697;BME280;22617;43.690;27.956;2024-03-25T12:01:18;97506.41;;;6.88;100.00
18697;BME280;22617;43.690;27.956;2024-03-25T12:06:20;97500.13;;;7.06;100.00
18697;BME280;22617;43.690;27.956;2024-03-25T12:11:21;97510.31;;;7.18;100.00
18697;BME280;22617;43.690;27.956;2024-03-25T12:16:23;97506.06;;;7.13;100.00
18697;BME280;22617;43.690;27.956;2024-03-25T12:21:24;97505.72;;;7.37;100.00
18697;BME280;22617;43.690;27.956;2024-03-25T12:26:25;97512.63;;;7.38;100.00
18697;BME280;22617;43.690;27.956;2024-03-25T12:31:26;97510.97;;;7.32;100.00
18697;BME280;22617;43.690;27.956;2024-03-25T12:36:27;97515.09;;;7.44;100.00
18697;BME280;22617;43.690;27.956;2024-03-25T12:41:28;97524.41;;;7.57;100.00
18697;BME280;22617;43.690;27.956;2024-03-25T12:46:29;97535.06;;;7.37;100.00
18697;BME280;22617;43.690;27.956;2024-03-25T12:51:31;97526.44;;;7.35;100.00
18697;BME280;22617;43.690;27.956;2024-03-25T12:56:32;97533.75;;;7.66;100.00
18697;BME280;22617;43.690;27.956;2024-03-25T13:01:33;97537.53;;;7.47;100.00
18697;BME280;22617;43.690;27.956;2024-03-25T13:06:34;97553.44;;;7.21;100.00
18697;BME280;22617;43.690;27.956;2024-03-25T13:11:35;97563.44;;;6.84;100.00
18697;BME280;22617;43.690;27.956;2024-03-25T13:16:36;97567.59;;;6.95;100.00
18697;BME280;22617;43.690;27.956;2024-03-25T13:21:38;97578.91;;;6.90;100.00
18697;BME280;22617;43.690;27.956;2024-03-25T13:26:39;97573.72;;;7.53;100.00
18697;BME280;22617;43.690;27.956;2024-03-25T13:31:40;97580.34;;;7.72;100.00
18697;BME280;22617;43.690;27.956;2024-03-25T13:36:41;97561.03;;;7.89;100.00
18697;BME280;22617;43.690;27.956;2024-03-25T13:41:43;97555.75;;;7.94;100.00
18697;BME280;22617;43.690;27.956;2024-03-25T13:46:44;97570.38;;;8.49;100.00
18697;BME280;22617;43.690;27.956;2024-03-25T13:51:46;97569.53;;;8.48;100.00
18697;BME280;22617;43.690;27.956;2024-03-25T13:56:47;97570.06;;;8.64;100.00
18697;BME280;22617;43.690;27.956;2024-03-25T14:01:49;97576.28;;;9.00;100.00
18697;BME280;22617;43.690;27.956;2024-03-25T14:06:51;97555.19;;;9.13;100.00
18697;BME280;22617;43.690;27.956;2024-03-25T14:11:52;97563.28;;;9.00;100.00
18697;BME280;22617;43.690;27.956;2024-03-25T14:16:53;97560.53;;;9.46;100.00
18697;BME280;22617;43.690;27.956;2024-03-25T14:21:54;97567.06;;;9.63;100.00
18697;BME280;22617;43.690;27.956;2024-03-25T14:26:55;97564.81;;;9.84;100.00
18697;BME280;22617;43.690;27.956;2024-03-25T14:31:56;97567.03;;;10.00;100.00
18697;BME280;22617;43.690;27.956;2024-03-25T14:36:58;97579.53;;;9.86;100.00
18697;BME280;22617;43.690;27.956;2024-03-25T14:41:59;97577.31;;;9.70;100.00
18697;BME280;22617;43.690;27.956;2024-03-25T14:47:00;97583.16;;;9.79;100.00
18697;BME280;22617;43.690;27.956;2024-03-25T14:52:02;97584.09;;;9.77;100.00
18697;BME280;22617;43.690;27.956;2024-03-25T14:57:03;97592.06;;;9.69;100.00
18697;BME280;22617;43.690;27.956;2024-03-25T15:02:04;97593.66;;;9.76;100.00
18697;BME280;22617;43.690;27.956;2024-03-25T15:07:05;97597.53;;;9.94;100.00
18697;BME280;22617;43.690;27.956;2024-03-25T15:12:06;97603.31;;;9.70;100.00
18697;BME280;22617;43.690;27.956;2024-03-25T15:17:07;97617.25;;;9.69;100.00
18697;BME280;22617;43.690;27.956;2024-03-25T15:22:08;97613.84;;;9.65;100.00
18697;BME280;22617;43.690;27.956;2024-03-25T15:27:09;97618.25;;;9.61;100.00
18697;BME280;22617;43.690;27.956;2024-03-25T15:32:10;97620.19;;;9.53;100.00
18697;BME280;22617;43.690;27.956;2024-03-25T15:37:11;97618.63;;;9.45;100.00
18697;BME280;22617;43.690;27.956;2024-03-25T15:42:12;97620.53;;;9.38;100.00
18697;BME280;22617;43.690;27.956;2024-03-25T15:47:13;97635.66;;;9.19;100.00
18697;BME280;22617;43.690;27.956;2024-03-25T15:52:17;97634.94;;;9.11;100.00
18697;BME280;22617;43.690;27.956;2024-03-25T15:57:18;97638.47;;;9.09;100.00
18697;BME280;22617;43.690;27.956;2024-03-25T16:02:19;97642.97;;;9.01;100.00
18697;BME280;22617;43.690;27.956;2024-03-25T16:07:20;97653.69;;;8.83;100.00
18697;BME280;22617;43.690;27.956;2024-03-25T16:12:22;97671.06;;;8.81;100.00
18697;BME280;22617;43.690;27.956;2024-03-25T16:17:23;97671.06;;;8.81;100.00
18697;BME280;22617;43.690;27.956;2024-03-25T16:22:24;97680.75;;;8.72;100.00
18697;BME280;22617;43.690;27.956;2024-03-25T16:27:25;97691.97;;;8.73;100.00
18697;BME280;22617;43.690;27.956;2024-03-25T16:32:34;97685.28;;;8.60;100.00
18697;BME280;22617;43.690;27.956;2024-03-25T16:37:35;97726.03;;;8.55;100.00
18697;BME280;22617;43.690;27.956;2024-03-25T16:42:36;97750.69;;;7.65;100.00
18697;BME280;22617;43.690;27.956;2024-03-25T16:47:37;97769.44;;;7.14;100.00
18697;BME280;22617;43.690;27.956;2024-03-25T16:52:38;97772.22;;;6.92;100.00
18697;BME280;22617;43.690;27.956;2024-03-25T16:57:40;97780.38;;;6.51;100.00
18697;BME280;22617;43.690;27.956;2024-03-25T17:02:41;97785.56;;;6.45;100.00
18697;BME280;22617;43.690;27.956;2024-03-25T17:07:42;97792.72;;;6.13;100.00
18697;BME280;22617;43.690;27.956;2024-03-25T17:12:44;97810.03;;;5.97;100.00
18697;BME280;22617;43.690;27.956;2024-03-25T17:17:45;97804.91;;;5.90;100.00
18697;BME280;22617;43.690;27.956;2024-03-25T17:22:46;97804.03;;;5.94;100.00
18697;BME280;22617;43.690;27.956;2024-03-25T17:27:47;97804.88;;;5.94;100.00
18697;BME280;22617;43.690;27.956;2024-03-25T17:32:48;97810.88;;;5.96;100.00
18697;BME280;22617;43.690;27.956;2024-03-25T17:37:49;97852.28;;;5.84;100.00
18697;BME280;22617;43.690;27.956;2024-03-25T17:42:50;97853.13;;;5.91;100.00
18697;BME280;22617;43.690;27.956;2024-03-25T17:47:51;97843.66;;;5.85;100.00
18697;BME280;22617;43.690;27.956;2024-03-25T17:52:51;97835.06;;;5.89;100.00
18697;BME280;22617;43.690;27.956;2024-03-25T17:57:52;97834.19;;;5.92;100.00
18697;BME280;22617;43.690;27.956;2024-03-25T18:02:53;97828.13;;;5.99;100.00
18697;BME280;22617;43.690;27.956;2024-03-25T18:07:54;97825.53;;;5.97;100.00
18697;BME280;22617;43.690;27.956;2024-03-25T18:12:55;97830.78;;;5.71;100.00
18697;BME280;22617;43.690;27.956;2024-03-25T18:17:57;97831.59;;;5.93;100.00
18697;BME280;22617;43.690;27.956;2024-03-25T18:22:57;97841.94;;;5.84;100.00
18697;BME280;22617;43.690;27.956;2024-03-25T18:27:59;97850.56;;;5.88;100.00
18697;BME280;22617;43.690;27.956;2024-03-25T18:33:00;97868.66;;;5.83;100.00
18697;BME280;22617;43.690;27.956;2024-03-25T18:38:02;97878.22;;;5.60;100.00
18697;BME280;22617;43.690;27.956;2024-03-25T18:43:06;97871.38;;;5.35;100.00
18697;BME280;22617;43.690;27.956;2024-03-25T18:48:07;97884.25;;;5.54;100.00
18697;BME280;22617;43.690;27.956;2024-03-25T18:53:08;97884.25;;;5.48;100.00
18697;BME280;22617;43.690;27.956;2024-03-25T18:58:09;97881.69;;;5.38;100.00
18697;BME280;22617;43.690;27.956;2024-03-25T19:03:10;97889.50;;;5.18;100.00
18697;BME280;22617;43.690;27.956;2024-03-25T19:08:11;97903.25;;;4.88;100.00
18697;BME280;22617;43.690;27.956;2024-03-25T19:13:13;97917.03;;;4.84;100.00
18697;BME280;22617;43.690;27.956;2024-03-25T19:18:13;97931.63;;;4.77;100.00
18697;BME280;22617;43.690;27.956;2024-03-25T19:23:14;97935.91;;;4.65;100.00
18697;BME280;22617;43.690;27.956;2024-03-25T19:28:16;97934.22;;;4.74;100.00
18697;BME280;22617;43.690;27.956;2024-03-25T19:33:17;97929.91;;;4.81;100.00
18697;BME280;22617;43.690;27.956;2024-03-25T19:38:18;97945.41;;;4.90;100.00
18697;BME280;22617;43.690;27.956;2024-03-25T19:43:19;97956.53;;;4.62;100.00
18697;BME280;22617;43.690;27.956;2024-03-25T19:48:20;97964.25;;;4.54;100.00
18697;BME280;22617;43.690;27.956;2024-03-25T19:53:21;97960.88;;;4.69;100.00
18697;BME280;22617;43.690;27.956;2024-03-25T19:58:22;97956.59;;;4.89;100.00
18697;BME280;22617;43.690;27.956;2024-03-25T20:03:23;97945.44;;;4.93;100.00
18697;BME280;22617;43.690;27.956;2024-03-25T20:08:24;97954.88;;;5.14;100.00
18697;BME280;22617;43.690;27.956;2024-03-25T20:13:25;97950.59;;;5.16;100.00
18697;BME280;22617;43.690;27.956;2024-03-25T20:18:27;97947.13;;;4.96;100.00
18697;BME280;22617;43.690;27.956;2024-03-25T20:23:28;97948.00;;;5.01;100.00
18697;BME280;22617;43.690;27.956;2024-03-25T20:28:30;97951.47;;;5.12;100.00
18697;BME280;22617;43.690;27.956;2024-03-25T20:33:31;97948.88;;;5.10;100.00
18697;BME280;22617;43.690;27.956;2024-03-25T20:38:32;97942.81;;;5.04;100.00
18697;BME280;22617;43.690;27.956;2024-03-25T20:43:33;97940.25;;;5.10;100.00
18697;BME280;22617;43.690;27.956;2024-03-25T20:48:34;97941.09;;;5.04;100.00
18697;BME280;22617;43.690;27.956;2024-03-25T20:53:35;97950.59;;;5.17;100.00
18697;BME280;22617;43.690;27.956;2024-03-25T20:58:36;97953.16;;;4.82;100.00
18697;BME280;22617;43.690;27.956;2024-03-25T21:03:37;97954.91;;;4.99;100.00
18697;BME280;22617;43.690;27.956;2024-03-25T21:08:38;97962.59;;;4.94;100.00
18697;BME280;22617;43.690;27.956;2024-03-25T21:13:39;97950.56;;;4.96;100.00
18697;BME280;22617;43.690;27.956;2024-03-25T21:18:40;97954.03;;;4.98;100.00
18697;BME280;22617;43.690;27.956;2024-03-25T21:23:45;97957.47;;;4.96;100.00
18697;BME280;22617;43.690;27.956;2024-03-25T21:28:46;97966.06;;;4.93;100.00
18697;BME280;22617;43.690;27.956;2024-03-25T21:33:47;97980.72;;;5.02;100.00
18697;BME280;22617;43.690;27.956;2024-03-25T21:38:48;97988.41;;;4.90;100.00
18697;BME280;22617;43.690;27.956;2024-03-25T21:43:49;97985.84;;;4.96;100.00
18697;BME280;22617;43.690;27.956;2024-03-25T21:48:50;97993.63;;;5.05;100.00
18697;BME280;22617;43.690;27.956;2024-03-25T21:53:51;97997.06;;;5.14;100.00
18697;BME280;22617;43.690;27.956;2024-03-25T21:58:52;98001.41;;;5.17;100.00
18697;BME280;22617;43.690;27.956;2024-03-25T22:03:52;98007.38;;;5.05;100.00
18697;BME280;22617;43.690;27.956;2024-03-25T22:08:53;98015.13;;;5.01;100.00
18697;BME280;22617;43.690;27.956;2024-03-25T22:13:54;98017.72;;;4.93;100.00
18697;BME280;22617;43.690;27.956;2024-03-25T22:18:55;98022.00;;;5.05;100.00
18697;BME280;22617;43.690;27.956;2024-03-25T22:23:56;98025.44;;;4.93;100.00
18697;BME280;22617;43.690;27.956;2024-03-25T22:28:57;98035.75;;;4.90;100.00
18697;BME280;22617;43.690;27.956;2024-03-25T22:34:00;98046.00;;;4.67;100.00
18697;BME280;22617;43.690;27.956;2024-03-25T22:39:01;98053.75;;;4.70;100.00
18697;BME280;22617;43.690;27.956;2024-03-25T22:44:02;98053.72;;;4.60;100.00
18697;BME280;22617;43.690;27.956;2024-03-25T22:49:03;98066.66;;;4.69;100.00
18697;BME280;22617;43.690;27.956;2024-03-25T22:54:04;98064.91;;;4.66;100.00
18697;BME280;22617;43.690;27.956;2024-03-25T22:59:05;98067.44;;;4.56;100.00
18697;BME280;22617;43.690;27.956;2024-03-25T23:04:06;98073.47;;;4.53;100.00
18697;BME280;22617;43.690;27.956;2024-03-25T23:09:07;98088.03;;;4.41;100.00
18697;BME280;22617;43.690;27.956;2024-03-25T23:14:08;98093.19;;;4.41;100.00
18697;BME280;22617;43.690;27.956;2024-03-25T23:19:08;98089.72;;;4.35;100.00
18697;BME280;22617;43.690;27.956;2024-03-25T23:24:09;98093.19;;;4.41;100.00
18697;BME280;22617;43.690;27.956;2024-03-25T23:29:10;98090.53;;;4.30;100.00
18697;BME280;22617;43.690;27.956;2024-03-25T23:34:11;98108.56;;;4.25;100.00
18697;BME280;22617;43.690;27.956;2024-03-25T23:39:12;98114.59;;;4.26;100.00
18697;BME280;22617;43.690;27.956;2024-03-25T23:44:13;98111.06;;;4.15;100.00
18697;BME280;22617;43.690;27.956;2024-03-25T23:49:14;98115.34;;;4.13;100.00
18697;BME280;22617;43.690;27.956;2024-03-25T23:54:15;98117.81;;;3.99;100.00
18697;BME280;22617;43.690;27.956;2024-03-25T23:59:16;98123.06;;;4.10;100.00
